sensor_id;sensor_type;location;lat;lon;timestamp;P1;durP1;ratioP1;P2;durP2;ratioP2
14939;SDS011;11825;51.898;8.202;2022-10-20T00:01:27;4.80;;;4.17;;
14939;SDS011;11825;51.898;8.202;2022-10-20T00:06:30;5.27;;;4.70;;
14939;SDS011;11825;51.898;8.202;2022-10-20T00:11:33;5.43;;;4.10;;
14939;SDS011;11825;51.898;8.202;2022-10-20T00:16:35;7.27;;;4.50;;
14939;SDS011;11825;51.898;8.202;2022-10-20T00:21:38;5.40;;;4.77;;
14939;SDS011;11825;51.898;8.202;2022-10-20T00:26:39;6.47;;;4.80;;
14939;SDS011;11825;51.898;8.202;2022-10-20T00:31:42;5.40;;;4.70;;
14939;SDS011;11825;51.898;8.202;2022-10-20T00:36:44;7.60;;;5.30;;
14939;SDS011;11825;51.898;8.202;2022-10-20T00:41:51;7.30;;;5.13;;
14939;SDS011;11825;51.898;8.202;2022-10-20T00:46:53;5.27;;;4.77;;
14939;SDS011;11825;51.898;8.202;2022-10-20T00:51:54;9.03;;;6.00;;
14939;SDS011;11825;51.898;8.202;2022-10-20T00:56:56;7.77;;;6.40;;
14939;SDS011;11825;51.898;8.202;2022-10-20T01:01:58;6.53;;;5.93;;
14939;SDS011;11825;51.898;8.202;2022-10-20T01:07:01;9.10;;;7.47;;
14939;SDS011;11825;51.898;8.202;2022-10-20T01:17:36;7.67;;;6.80;;
14939;SDS011;11825;51.898;8.202;2022-10-20T01:28:08;8.90;;;8.00;;
14939;SDS011;11825;51.898;8.202;2022-10-20T01:38:43;9.93;;;8.93;;
14939;SDS011;11825;51.898;8.202;2022-10-20T01:43:48;8.83;;;7.50;;
14939;SDS011;11825;51.898;8.202;2022-10-20T01:48:50;8.90;;;8.17;;
14939;SDS011;11825;51.898;8.202;2022-10-20T01:53:52;10.20;;;9.27;;
14939;SDS011;11825;51.898;8.202;2022-10-20T02:04:05;10.07;;;9.13;;
14939;SDS011;11825;51.898;8.202;2022-10-20T02:09:18;10.83;;;9.50;;
14939;SDS011;11825;51.898;8.202;2022-10-20T02:14:26;10.60;;;9.63;;
14939;SDS011;11825;51.898;8.202;2022-10-20T02:19:30;9.27;;;8.37;;
14939;SDS011;11825;51.898;8.202;2022-10-20T02:24:35;11.10;;;10.00;;
14939;SDS011;11825;51.898;8.202;2022-10-20T02:29:40;12.23;;;10.20;;
14939;SDS011;11825;51.898;8.202;2022-10-20T02:34:45;9.93;;;9.03;;
14939;SDS011;11825;51.898;8.202;2022-10-20T02:39:48;11.20;;;10.10;;
14939;SDS011;11825;51.898;8.202;2022-10-20T02:44:49;13.77;;;10.10;;
14939;SDS011;11825;51.898;8.202;2022-10-20T02:49:51;11.83;;;10.73;;
14939;SDS011;11825;51.898;8.202;2022-10-20T02:54:53;9.97;;;9.07;;
14939;SDS011;11825;51.898;8.202;2022-10-20T02:59:54;11.00;;;9.90;;
14939;SDS011;11825;51.898;8.202;2022-10-20T03:04:56;11.60;;;10.00;;
14939;SDS011;11825;51.898;8.202;2022-10-20T03:09:58;11.17;;;9.97;;
14939;SDS011;11825;51.898;8.202;2022-10-20T03:14:59;10.97;;;9.97;;
14939;SDS011;11825;51.898;8.202;2022-10-20T03:20:04;11.23;;;10.23;;
14939;SDS011;11825;51.898;8.202;2022-10-20T03:25:12;11.47;;;10.33;;
14939;SDS011;11825;51.898;8.202;2022-10-20T03:30:14;11.83;;;10.50;;
14939;SDS011;11825;51.898;8.202;2022-10-20T03:35:16;11.63;;;9.57;;
14939;SDS011;11825;51.898;8.202;2022-10-20T03:40:19;11.63;;;10.00;;
14939;SDS011;11825;51.898;8.202;2022-10-20T03:45:20;11.50;;;10.40;;
14939;SDS011;11825;51.898;8.202;2022-10-20T03:50:22;10.13;;;9.23;;
14939;SDS011;11825;51.898;8.202;2022-10-20T03:55:24;10.43;;;9.30;;
14939;SDS011;11825;51.898;8.202;2022-10-20T04:00:25;12.07;;;9.63;;
14939;SDS011;11825;51.898;8.202;2022-10-20T04:05:27;10.83;;;9.90;;
14939;SDS011;11825;51.898;8.202;2022-10-20T04:10:29;11.17;;;10.17;;
14939;SDS011;11825;51.898;8.202;2022-10-20T04:15:31;11.63;;;10.63;;
14939;SDS011;11825;51.898;8.202;2022-10-20T04:20:33;11.00;;;9.83;;
14939;SDS011;11825;51.898;8.202;2022-10-20T04:25:37;12.20;;;10.27;;
14939;SDS011;11825;51.898;8.202;2022-10-20T04:30:46;14.50;;;10.67;;
14939;SDS011;11825;51.898;8.202;2022-10-20T04:35:54;11.00;;;10.00;;
14939;SDS011;11825;51.898;8.202;2022-10-20T04:40:59;10.77;;;9.77;;
14939;SDS011;11825;51.898;8.202;2022-10-20T04:46:04;11.50;;;10.30;;
14939;SDS011;11825;51.898;8.202;2022-10-20T04:51:10;11.47;;;9.30;;
14939;SDS011;11825;51.898;8.202;2022-10-20T04:56:14;11.53;;;10.13;;
14939;SDS011;11825;51.898;8.202;2022-10-20T05:01:22;10.37;;;9.47;;
14939;SDS011;11825;51.898;8.202;2022-10-20T05:06:26;12.10;;;10.07;;
14939;SDS011;11825;51.898;8.202;2022-10-20T05:11:34;9.00;;;8.03;;
14939;SDS011;11825;51.898;8.202;2022-10-20T05:16:36;11.97;;;8.87;;
14939;SDS011;11825;51.898;8.202;2022-10-20T05:21:41;9.77;;;8.77;;
14939;SDS011;11825;51.898;8.202;2022-10-20T05:26:56;10.47;;;8.93;;
14939;SDS011;11825;51.898;8.202;2022-10-20T05:32:04;11.63;;;10.03;;
14939;SDS011;11825;51.898;8.202;2022-10-20T05:37:26;14.60;;;12.43;;
14939;SDS011;11825;51.898;8.202;2022-10-20T05:42:34;12.10;;;9.93;;
14939;SDS011;11825;51.898;8.202;2022-10-20T05:47:38;10.70;;;9.70;;
14939;SDS011;11825;51.898;8.202;2022-10-20T05:52:41;10.13;;;9.13;;
14939;SDS011;11825;51.898;8.202;2022-10-20T05:57:43;11.47;;;9.80;;
14939;SDS011;11825;51.898;8.202;2022-10-20T06:02:45;11.17;;;9.67;;
14939;SDS011;11825;51.898;8.202;2022-10-20T06:07:46;10.80;;;9.33;;
14939;SDS011;11825;51.898;8.202;2022-10-20T06:12:57;10.73;;;9.63;;
14939;SDS011;11825;51.898;8.202;2022-10-20T06:17:59;12.80;;;10.97;;
14939;SDS011;11825;51.898;8.202;2022-10-20T06:23:00;11.03;;;9.73;;
14939;SDS011;11825;51.898;8.202;2022-10-20T06:28:02;12.67;;;9.37;;
14939;SDS011;11825;51.898;8.202;2022-10-20T06:33:04;14.30;;;9.77;;
14939;SDS011;11825;51.898;8.202;2022-10-20T06:38:06;11.37;;;9.37;;
14939;SDS011;11825;51.898;8.202;2022-10-20T06:43:07;9.63;;;8.60;;
14939;SDS011;11825;51.898;8.202;2022-10-20T06:48:09;12.20;;;9.13;;
14939;SDS011;11825;51.898;8.202;2022-10-20T06:53:11;10.90;;;8.93;;
14939;SDS011;11825;51.898;8.202;2022-10-20T06:58:12;9.63;;;7.67;;
14939;SDS011;11825;51.898;8.202;2022-10-20T07:03:14;9.60;;;8.73;;
14939;SDS011;11825;51.898;8.202;2022-10-20T07:08:16;10.93;;;9.10;;
14939;SDS011;11825;51.898;8.202;2022-10-20T07:13:17;9.40;;;8.23;;
14939;SDS011;11825;51.898;8.202;2022-10-20T07:18:19;10.57;;;8.63;;
14939;SDS011;11825;51.898;8.202;2022-10-20T07:23:21;9.60;;;8.73;;
14939;SDS011;11825;51.898;8.202;2022-10-20T07:28:23;10.00;;;9.03;;
14939;SDS011;11825;51.898;8.202;2022-10-20T07:33:24;9.00;;;8.20;;
14939;SDS011;11825;51.898;8.202;2022-10-20T07:38:26;9.27;;;8.37;;
14939;SDS011;11825;51.898;8.202;2022-10-20T07:43:28;8.83;;;8.10;;
14939;SDS011;11825;51.898;8.202;2022-10-20T07:48:30;8.97;;;7.90;;
14939;SDS011;11825;51.898;8.202;2022-10-20T07:53:33;11.00;;;8.67;;
14939;SDS011;11825;51.898;8.202;2022-10-20T07:58:35;10.77;;;9.67;;
14939;SDS011;11825;51.898;8.202;2022-10-20T08:03:37;9.70;;;8.67;;
14939;SDS011;11825;51.898;8.202;2022-10-20T08:08:39;12.50;;;9.23;;
14939;SDS011;11825;51.898;8.202;2022-10-20T08:13:41;10.40;;;9.40;;
14939;SDS011;11825;51.898;8.202;2022-10-20T08:18:43;12.93;;;10.13;;
14939;SDS011;11825;51.898;8.202;2022-10-20T08:23:51;10.97;;;9.97;;
14939;SDS011;11825;51.898;8.202;2022-10-20T08:28:54;12.73;;;10.17;;
14939;SDS011;11825;51.898;8.202;2022-10-20T08:33:56;11.53;;;10.40;;
14939;SDS011;11825;51.898;8.202;2022-10-20T08:38:58;11.23;;;10.27;;
14939;SDS011;11825;51.898;8.202;2022-10-20T08:44:06;16.27;;;11.20;;
14939;SDS011;11825;51.898;8.202;2022-10-20T08:49:11;10.60;;;9.60;;
14939;SDS011;11825;51.898;8.202;2022-10-20T08:54:39;15.13;;;10.27;;
14939;SDS011;11825;51.898;8.202;2022-10-20T08:59:41;11.70;;;10.47;;
14939;SDS011;11825;51.898;8.202;2022-10-20T09:05:06;9.73;;;8.77;;
14939;SDS011;11825;51.898;8.202;2022-10-20T09:16:49;9.70;;;8.63;;
14939;SDS011;11825;51.898;8.202;2022-10-20T09:22:02;10.53;;;9.53;;
14939;SDS011;11825;51.898;8.202;2022-10-20T09:27:42;8.77;;;7.97;;
14939;SDS011;11825;51.898;8.202;2022-10-20T09:33:32;8.27;;;7.37;;
14939;SDS011;11825;51.898;8.202;2022-10-20T09:38:35;8.10;;;7.40;;
14939;SDS011;11825;51.898;8.202;2022-10-20T09:43:53;9.30;;;8.40;;
14939;SDS011;11825;51.898;8.202;2022-10-20T09:48:58;8.83;;;8.07;;
14939;SDS011;11825;51.898;8.202;2022-10-20T09:54:04;7.83;;;7.10;;
14939;SDS011;11825;51.898;8.202;2022-10-20T09:59:53;7.73;;;6.87;;
14939;SDS011;11825;51.898;8.202;2022-10-20T10:04:37;8.13;;;7.43;;
14939;SDS011;11825;51.898;8.202;2022-10-20T10:09:40;8.57;;;7.37;;
14939;SDS011;11825;51.898;8.202;2022-10-20T10:14:52;9.10;;;7.40;;
14939;SDS011;11825;51.898;8.202;2022-10-20T10:20:11;7.33;;;6.07;;
14939;SDS011;11825;51.898;8.202;2022-10-20T10:25:37;8.07;;;7.27;;
14939;SDS011;11825;51.898;8.202;2022-10-20T10:30:39;7.97;;;6.90;;
14939;SDS011;11825;51.898;8.202;2022-10-20T10:35:48;7.60;;;7.00;;
14939;SDS011;11825;51.898;8.202;2022-10-20T10:51:46;9.40;;;7.63;;
14939;SDS011;11825;51.898;8.202;2022-10-20T10:57:04;9.47;;;8.37;;
14939;SDS011;11825;51.898;8.202;2022-10-20T11:13:21;9.13;;;8.27;;
14939;SDS011;11825;51.898;8.202;2022-10-20T11:24:27;9.13;;;8.33;;
14939;SDS011;11825;51.898;8.202;2022-10-20T11:30:19;8.93;;;8.10;;
14939;SDS011;11825;51.898;8.202;2022-10-20T11:35:39;8.77;;;7.93;;
14939;SDS011;11825;51.898;8.202;2022-10-20T11:40:44;9.27;;;7.73;;
14939;SDS011;11825;51.898;8.202;2022-10-20T11:45:56;10.67;;;7.27;;
14939;SDS011;11825;51.898;8.202;2022-10-20T11:56:48;7.70;;;6.80;;
14939;SDS011;11825;51.898;8.202;2022-10-20T12:12:34;6.83;;;6.23;;
14939;SDS011;11825;51.898;8.202;2022-10-20T12:17:42;9.93;;;7.70;;
14939;SDS011;11825;51.898;8.202;2022-10-20T12:22:44;7.27;;;6.50;;
14939;SDS011;11825;51.898;8.202;2022-10-20T12:33:56;8.53;;;7.63;;
14939;SDS011;11825;51.898;8.202;2022-10-20T12:39:12;10.57;;;8.17;;
14939;SDS011;11825;51.898;8.202;2022-10-20T12:44:21;10.60;;;8.10;;
14939;SDS011;11825;51.898;8.202;2022-10-20T12:49:27;9.33;;;8.40;;
14939;SDS011;11825;51.898;8.202;2022-10-20T12:54:35;8.00;;;7.27;;
14939;SDS011;11825;51.898;8.202;2022-10-20T12:59:39;9.57;;;8.57;;
14939;SDS011;11825;51.898;8.202;2022-10-20T13:26:19;11.27;;;8.73;;
14939;SDS011;11825;51.898;8.202;2022-10-20T13:52:32;11.90;;;9.53;;
14939;SDS011;11825;51.898;8.202;2022-10-20T13:57:35;12.30;;;10.40;;
14939;SDS011;11825;51.898;8.202;2022-10-20T14:02:37;12.00;;;10.33;;
14939;SDS011;11825;51.898;8.202;2022-10-20T14:07:40;12.07;;;10.63;;
14939;SDS011;11825;51.898;8.202;2022-10-20T14:12:43;12.60;;;11.40;;
14939;SDS011;11825;51.898;8.202;2022-10-20T14:17:53;13.77;;;10.83;;
14939;SDS011;11825;51.898;8.202;2022-10-20T14:22:57;15.40;;;11.50;;
14939;SDS011;11825;51.898;8.202;2022-10-20T14:28:00;13.40;;;12.10;;
14939;SDS011;11825;51.898;8.202;2022-10-20T14:33:10;14.83;;;11.97;;
14939;SDS011;11825;51.898;8.202;2022-10-20T14:48:45;15.27;;;13.67;;
14939;SDS011;11825;51.898;8.202;2022-10-20T14:53:48;14.13;;;12.53;;
14939;SDS011;11825;51.898;8.202;2022-10-20T15:04:32;16.23;;;14.63;;
14939;SDS011;11825;51.898;8.202;2022-10-20T15:09:37;17.03;;;14.80;;
14939;SDS011;11825;51.898;8.202;2022-10-20T15:14:43;18.67;;;15.27;;
14939;SDS011;11825;51.898;8.202;2022-10-20T15:19:49;15.17;;;13.33;;
14939;SDS011;11825;51.898;8.202;2022-10-20T15:24:51;16.60;;;15.00;;
14939;SDS011;11825;51.898;8.202;2022-10-20T15:29:52;15.53;;;13.93;;
14939;SDS011;11825;51.898;8.202;2022-10-20T15:34:54;17.33;;;14.30;;
14939;SDS011;11825;51.898;8.202;2022-10-20T15:39:56;18.33;;;14.90;;
14939;SDS011;11825;51.898;8.202;2022-10-20T15:44:57;22.30;;;15.73;;
14939;SDS011;11825;51.898;8.202;2022-10-20T15:49:59;16.10;;;14.50;;
14939;SDS011;11825;51.898;8.202;2022-10-20T15:55:01;17.10;;;14.43;;
14939;SDS011;11825;51.898;8.202;2022-10-20T16:00:10;18.13;;;16.37;;
14939;SDS011;11825;51.898;8.202;2022-10-20T16:05:12;18.90;;;15.77;;
14939;SDS011;11825;51.898;8.202;2022-10-20T16:10:14;16.90;;;15.10;;
14939;SDS011;11825;51.898;8.202;2022-10-20T16:15:17;20.00;;;15.43;;
14939;SDS011;11825;51.898;8.202;2022-10-20T16:25:30;46.43;;;41.63;;
14939;SDS011;11825;51.898;8.202;2022-10-20T16:30:32;19.10;;;16.20;;
14939;SDS011;11825;51.898;8.202;2022-10-20T16:35:39;29.13;;;26.13;;
14939;SDS011;11825;51.898;8.202;2022-10-20T18:49:42;18.90;;;16.90;;
14939;SDS011;11825;51.898;8.202;2022-10-20T19:52:07;19.67;;;16.40;;
14939;SDS011;11825;51.898;8.202;2022-10-20T19:57:09;20.83;;;17.03;;
14939;SDS011;11825;51.898;8.202;2022-10-20T20:23:38;20.83;;;16.73;;
14939;SDS011;11825;51.898;8.202;2022-10-20T20:30:13;17.70;;;15.60;;
14939;SDS011;11825;51.898;8.202;2022-10-20T20:58:49;24.90;;;15.90;;
14939;SDS011;11825;51.898;8.202;2022-10-20T21:04:15;22.83;;;18.50;;
